Time;durP1;ratioP1;P1;durP2;ratioP2;P2;SDS_P1;SDS_P2;PMS_P1;PMS_P2;Temp;Humidity;BMP_temperature;BMP_pressure;BME280_temperature;BME280_humidity;BME280_pressure;Samples;Min_cycle;Max_cycle;Signal;HPM_P1;HPM_P2
2022/06/19 00:01:11;;;;;;;18.73;4.60;;;22.30;99.90;;;;;;5013507;28;20230;-76
2022/06/19 00:03:42;;;;;;;15.70;4.03;;;22.30;99.90;;;;;;5013959;28;20690;-76
2022/06/19 00:06:08;;;;;;;15.63;4.77;;;22.20;99.90;;;;;;5013633;28;20174;-75
2022/06/19 00:08:34;;;;;;;14.40;5.13;;;22.00;99.90;;;;;;5013927;28;20861;-76
2022/06/19 00:11:01;;;;;;;9.80;4.10;;;21.90;99.90;;;;;;5013818;28;20480;-76
2022/06/19 00:13:27;;;;;;;13.50;4.63;;;21.80;99.90;;;;;;5013803;28;20290;-76
2022/06/19 00:15:54;;;;;;;19.13;5.57;;;21.70;99.90;;;;;;5013538;28;21017;-76
2022/06/19 00:18:20;;;;;;;9.47;4.13;;;21.60;99.90;;;;;;5013557;28;20452;-75
2022/06/19 00:20:46;;;;;;;11.50;4.00;;;21.50;99.90;;;;;;5013236;28;20759;-75
2022/06/19 00:23:11;;;;;;;13.60;5.00;;;21.40;99.90;;;;;;5013533;28;20500;-76
2022/06/19 00:25:38;;;;;;;18.37;5.00;;;21.30;99.90;;;;;;5013528;28;20213;-76
2022/06/19 00:28:05;;;;;;;19.20;4.53;;;21.20;99.90;;;;;;5013644;28;20174;-76
2022/06/19 00:30:31;;;;;;;9.63;3.70;;;21.10;99.90;;;;;;5012350;28;20453;-75
2022/06/19 00:32:58;;;;;;;12.40;3.73;;;21.10;99.90;;;;;;5013152;28;20452;-76
2022/06/19 00:35:26;;;;;;;15.57;4.10;;;21.00;99.90;;;;;;5013452;28;20410;-76
2022/06/19 00:37:53;;;;;;;7.90;4.03;;;20.90;99.90;;;;;;5012216;28;20853;-75
2022/06/19 00:40:19;;;;;;;14.53;4.27;;;20.90;99.90;;;;;;5013174;28;20429;-76
2022/06/19 00:42:44;;;;;;;13.17;4.80;;;20.80;99.90;;;;;;5013030;28;20817;-76
2022/06/19 00:45:28;;;;;;;16.60;4.90;;;20.80;99.90;;;;;;5013013;28;20500;-76
2022/06/19 00:47:54;;;;;;;18.60;4.63;;;20.70;99.90;;;;;;5013294;28;20178;-75
2022/06/19 00:50:27;;;;;;;11.87;4.23;;;20.60;99.90;;;;;;5011820;28;20452;-76
2022/06/19 00:52:53;;;;;;;12.13;4.70;;;20.50;99.90;;;;;;5012954;28;20230;-76
2022/06/19 00:55:28;;;;;;;9.73;4.20;;;20.50;99.90;;;;;;5012702;28;20937;-76
2022/06/19 00:58:07;;;;;;;8.37;4.10;;;20.40;99.90;;;;;;5011887;28;20261;-76
2022/06/19 02:31:10;;;;;;;6.10;3.40;;;19.00;99.90;;;;;;5894722;22;21029;-75
2022/06/19 02:33:42;;;;;;;7.40;4.40;;;19.00;99.90;;;;;;5030370;28;20401;-77
2022/06/19 02:36:35;;;;;;;11.90;3.73;;;19.00;99.90;;;;;;5031537;28;20401;-77
2022/06/19 02:39:12;;;;;;;20.60;4.03;;;18.90;99.90;;;;;;5032058;28;20828;-77
2022/06/19 02:41:44;;;;;;;12.30;3.43;;;18.90;99.90;;;;;;5032036;28;20427;-76
2022/06/19 02:44:10;;;;;;;20.77;4.60;;;18.90;99.90;;;;;;5031985;28;20385;-77
2022/06/19 02:46:35;;;;;;;16.30;3.90;;;18.90;99.90;;;;;;5031839;28;20418;-76
2022/06/19 02:49:02;;;;;;;12.00;3.50;;;18.90;99.90;;;;;;5031793;28;20174;-76
2022/06/19 02:51:28;;;;;;;11.80;3.90;;;18.90;99.90;;;;;;5031299;28;20217;-77
2022/06/19 02:53:53;;;;;;;9.03;3.80;;;19.00;99.90;;;;;;5032002;28;20413;-77
2022/06/19 02:56:19;;;;;;;11.73;4.50;;;19.00;99.90;;;;;;5034746;28;20784;-75
2022/06/19 02:58:44;;;;;;;12.53;3.97;;;18.90;99.90;;;;;;5033237;28;20272;-76
2022/06/19 03:01:10;;;;;;;10.13;3.63;;;18.90;99.90;;;;;;5032802;28;20264;-74
2022/06/19 03:03:35;;;;;;;13.17;3.80;;;18.90;99.90;;;;;;5034467;28;20535;-75
2022/06/19 03:06:02;;;;;;;14.63;4.70;;;18.90;99.90;;;;;;5034296;28;20170;-75
2022/06/19 03:08:28;;;;;;;8.47;3.37;;;18.80;99.90;;;;;;5034450;28;20182;-75
2022/06/19 03:10:53;;;;;;;15.50;3.97;;;18.80;99.90;;;;;;5033923;28;20452;-76
2022/06/19 03:13:21;;;;;;;10.07;3.77;;;18.80;99.90;;;;;;5034658;28;20284;-76
2022/06/19 03:15:47;;;;;;;10.13;3.90;;;18.70;99.90;;;;;;5034270;28;20662;-76
2022/06/19 03:18:13;;;;;;;11.60;3.93;;;18.90;99.90;;;;;;5034369;28;20408;-75
2022/06/19 03:20:38;;;;;;;8.10;3.17;;;18.90;99.90;;;;;;5034203;28;20952;-75
2022/06/19 03:23:04;;;;;;;7.83;3.67;;;18.80;99.90;;;;;;5034150;28;20185;-75
2022/06/19 03:25:29;;;;;;;17.00;4.50;;;18.80;99.90;;;;;;5034255;28;20193;-76
2022/06/19 03:27:55;;;;;;;11.80;4.63;;;18.80;99.90;;;;;;5034308;28;20585;-76
2022/06/19 03:30:21;;;;;;;11.30;4.00;;;18.80;99.90;;;;;;5034145;28;20704;-76
2022/06/19 03:32:47;;;;;;;10.60;3.33;;;18.80;99.90;;;;;;5033707;28;20217;-75
2022/06/19 03:35:15;;;;;;;8.93;3.40;;;18.80;99.90;;;;;;5034505;28;20409;-76
2022/06/19 03:37:41;;;;;;;10.20;5.03;;;18.80;99.90;;;;;;5034118;28;20436;-76
2022/06/19 03:40:08;;;;;;;16.03;4.50;;;18.80;99.90;;;;;;5032781;28;21014;-75
2022/06/19 03:42:33;;;;;;;12.30;4.53;;;18.80;99.90;;;;;;5033756;28;20201;-75
2022/06/19 03:44:59;;;;;;;10.80;4.50;;;18.80;99.90;;;;;;5034025;28;20409;-76
2022/06/19 03:47:26;;;;;;;7.93;4.33;;;18.90;99.90;;;;;;5034622;28;20174;-76
2022/06/19 03:49:52;;;;;;;10.60;3.97;;;18.90;99.90;;;;;;5034477;28;20211;-76
2022/06/19 03:52:17;;;;;;;8.90;4.73;;;18.90;99.90;;;;;;5033696;28;20603;-76
2022/06/19 03:54:43;;;;;;;15.60;3.67;;;19.00;99.90;;;;;;5033936;28;20174;-76
2022/06/19 03:57:12;;;;;;;8.70;3.70;;;19.00;99.90;;;;;;5033850;28;20182;-76
2022/06/19 03:59:38;;;;;;;9.30;4.10;;;19.10;99.90;;;;;;5033851;28;20724;-75
2022/06/19 04:02:04;;;;;;;7.67;3.80;;;19.10;99.90;;;;;;5033526;28;20437;-76
2022/06/19 04:04:30;;;;;;;5.30;3.63;;;19.20;99.90;;;;;;5032558;28;20174;-76
2022/06/19 04:06:56;;;;;;;8.10;3.63;;;19.20;99.90;;;;;;5032258;28;20425;-76
2022/06/19 04:09:22;;;;;;;11.60;4.37;;;19.30;99.90;;;;;;5033683;28;20428;-76
2022/06/19 04:11:47;;;;;;;11.43;4.80;;;19.40;99.90;;;;;;5033345;28;20209;-75
2022/06/19 04:14:15;;;;;;;15.00;6.50;;;19.40;99.90;;;;;;5033572;28;20304;-76
2022/06/19 04:16:42;;;;;;;12.37;4.03;;;19.50;99.90;;;;;;5033559;28;20170;-76
2022/06/19 04:19:08;;;;;;;8.73;4.70;;;19.60;99.90;;;;;;5033429;28;20420;-76
2022/06/19 04:21:39;;;;;;;11.40;4.83;;;19.70;99.90;;;;;;5033613;28;20811;-76
2022/06/19 04:24:05;;;;;;;13.27;5.30;;;19.80;99.90;;;;;;5033521;28;20248;-76
2022/06/19 04:26:33;;;;;;;13.23;4.03;;;19.90;99.90;;;;;;5033706;28;20490;-76
2022/06/19 04:28:59;;;;;;;7.57;4.00;;;20.00;99.90;;;;;;5034271;28;20420;-75
2022/06/19 04:31:25;;;;;;;12.97;4.10;;;20.10;99.90;;;;;;5032017;28;20468;-76
2022/06/19 04:33:52;;;;;;;8.70;4.00;;;20.20;99.90;;;;;;5033528;28;20425;-76
2022/06/19 04:36:19;;;;;;;10.60;3.60;;;20.30;99.90;;;;;;5033354;28;20426;-76
2022/06/19 04:38:46;;;;;;;6.37;3.60;;;20.50;99.90;;;;;;5033254;28;20413;-75
2022/06/19 04:41:15;;;;;;;6.10;4.17;;;20.60;99.90;;;;;;5032793;28;20432;-76
2022/06/19 04:43:40;;;;;;;10.33;4.17;;;20.70;99.90;;;;;;5033058;28;20452;-75
2022/06/19 04:46:06;;;;;;;16.13;3.90;;;20.90;99.90;;;;;;5033138;28;20475;-76
2022/06/19 04:48:33;;;;;;;11.50;3.57;;;21.10;99.90;;;;;;5031945;28;20170;-75
2022/06/19 04:50:59;;;;;;;8.40;4.03;;;21.20;99.90;;;;;;5032436;28;20209;-76
2022/06/19 04:53:24;;;;;;;18.27;4.27;;;21.30;99.90;;;;;;5032602;28;20413;-76
2022/06/19 04:55:50;;;;;;;6.03;4.10;;;21.50;99.90;;;;;;5032536;28;20170;-75
2022/06/19 04:58:15;;;;;;;12.13;3.70;;;21.70;99.90;;;;;;5032205;28;20178;-76
2022/06/19 05:00:41;;;;;;;10.30;4.10;;;21.90;99.90;;;;;;5030913;28;20178;-75
2022/06/19 05:03:07;;;;;;;15.67;3.73;;;22.70;99.90;;;;;;5032878;28;20174;-76
2022/06/19 05:05:33;;;;;;;9.80;3.80;;;24.10;99.90;;;;;;5032640;28;20174;-77
2022/06/19 05:07:58;;;;;;;10.00;4.63;;;25.70;99.90;;;;;;5032829;28;20205;-76
2022/06/19 05:10:24;;;;;;;15.47;4.30;;;26.90;99.90;;;;;;5032411;28;20197;-75
2022/06/19 05:12:55;;;;;;;10.37;4.00;;;28.10;99.90;;;;;;5032521;28;20678;-77
2022/06/19 05:15:21;;;;;;;12.37;3.63;;;28.90;99.90;;;;;;5032703;28;20193;-76
2022/06/19 05:17:47;;;;;;;11.23;3.83;;;29.40;99.90;;;;;;5031906;28;20417;-77
2022/06/19 05:20:12;;;;;;;12.43;4.13;;;30.10;99.90;;;;;;5032308;28;20212;-77
2022/06/19 05:22:38;;;;;;;9.57;3.77;;;30.50;99.90;;;;;;5030904;28;20202;-76
2022/06/19 05:25:08;;;;;;;18.03;4.00;;;31.40;99.90;;;;;;5031976;28;20189;-77
2022/06/19 05:27:35;;;;;;;11.40;3.73;;;31.60;99.90;;;;;;5032372;28;20170;-76
2022/06/19 05:30:01;;;;;;;11.00;3.60;;;31.90;99.90;;;;;;5032305;28;20420;-77
2022/06/19 05:32:27;;;;;;;15.63;4.20;;;32.30;99.90;;;;;;5031750;28;20460;-76
2022/06/19 05:34:53;;;;;;;21.77;4.70;;;32.50;99.90;;;;;;5032133;28;20162;-76
2022/06/19 05:37:18;;;;;;;14.60;4.70;;;32.60;99.90;;;;;;5032397;28;20547;-76
2022/06/19 05:39:44;;;;;;;12.33;4.73;;;32.00;99.90;;;;;;5032023;28;20560;-75
2022/06/19 05:42:10;;;;;;;14.10;4.00;;;31.90;99.90;;;;;;5031735;28;20193;-76
2022/06/19 05:44:36;;;;;;;16.83;4.60;;;31.80;99.90;;;;;;5031702;28;20178;-76
2022/06/19 05:47:01;;;;;;;17.20;4.63;;;31.40;99.90;;;;;;5032060;28;20235;-76
2022/06/19 05:49:27;;;;;;;15.50;4.30;;;31.30;99.90;;;;;;5032052;28;20413;-76
2022/06/19 05:51:52;;;;;;;17.47;5.23;;;31.20;99.90;;;;;;5031818;28;20209;-76
2022/06/19 05:54:18;;;;;;;14.40;4.13;;;31.30;99.90;;;;;;5032150;28;20181;-76
2022/06/19 05:56:43;;;;;;;21.63;4.60;;;31.20;99.90;;;;;;5032005;28;20210;-77
2022/06/19 05:59:09;;;;;;;15.50;3.67;;;31.20;99.90;;;;;;5031880;28;20540;-76
2022/06/19 06:01:35;;;;;;;10.13;3.53;;;31.20;99.90;;;;;;5031826;28;20198;-76
2022/06/19 06:04:00;;;;;;;12.57;3.70;;;31.20;99.90;;;;;;5032882;28;20205;-77
2022/06/19 06:06:29;;;;;;;19.30;5.17;;;31.40;99.90;;;;;;5030846;28;20841;-77
2022/06/19 06:08:55;;;;;;;8.47;3.50;;;31.40;99.90;;;;;;5032007;28;20183;-77
2022/06/19 06:11:21;;;;;;;14.57;3.87;;;31.50;99.90;;;;;;5031422;28;20460;-76
2022/06/19 06:13:47;;;;;;;10.63;4.13;;;31.50;99.90;;;;;;5031904;28;20316;-77
2022/06/19 06:16:15;;;;;;;17.80;4.03;;;31.50;99.90;;;;;;5031826;28;20444;-75
2022/06/19 06:18:41;;;;;;;18.83;4.00;;;31.60;99.90;;;;;;5032011;28;20178;-76
2022/06/19 06:21:15;;;;;;;8.00;3.50;;;31.80;99.90;;;;;;5031426;28;20453;-76
2022/06/19 06:23:42;;;;;;;12.07;4.07;;;32.00;99.90;;;;;;5031736;28;20185;-76
2022/06/19 06:26:13;;;;;;;13.87;4.27;;;32.30;99.90;;;;;;5032034;28;20436;-77
2022/06/19 06:28:41;;;;;;;12.50;4.57;;;32.50;99.90;;;;;;5031926;28;20424;-77
2022/06/19 06:31:07;;;;;;;16.30;4.53;;;32.60;99.90;;;;;;5034976;28;20476;-76
2022/06/19 06:33:33;;;;;;;17.63;4.40;;;32.70;99.90;;;;;;5035388;28;20411;-77
2022/06/19 06:35:59;;;;;;;13.20;5.20;;;32.70;99.90;;;;;;5035039;28;20232;-77
2022/06/19 06:38:26;;;;;;;12.00;3.50;;;32.70;99.90;;;;;;5035855;28;20184;-75
2022/06/19 06:40:52;;;;;;;12.33;3.50;;;33.00;99.90;;;;;;5034967;28;20975;-76
2022/06/19 06:43:19;;;;;;;12.50;4.70;;;32.70;99.90;;;;;;5035695;28;20405;-76
2022/06/19 06:45:44;;;;;;;20.50;4.33;;;32.90;99.90;;;;;;5035164;28;20408;-76
2022/06/19 06:48:10;;;;;;;16.00;4.40;;;32.60;99.90;;;;;;5035543;28;20850;-76
2022/06/19 06:50:38;;;;;;;10.47;4.50;;;32.70;99.60;;;;;;5034759;28;20284;-75
2022/06/19 06:53:04;;;;;;;21.27;4.70;;;32.70;99.90;;;;;;5035064;28;20420;-76
2022/06/19 06:55:30;;;;;;;13.00;4.00;;;32.60;99.90;;;;;;5035076;28;20455;-76
2022/06/19 06:57:55;;;;;;;13.50;3.90;;;32.60;99.90;;;;;;5034819;28;20456;-76
2022/06/19 07:00:23;;;;;;;14.93;4.60;;;32.80;99.90;;;;;;5034807;28;20256;-76
2022/06/19 07:02:49;;;;;;;19.43;4.70;;;32.90;99.20;;;;;;5034631;28;20201;-76
2022/06/19 07:05:14;;;;;;;14.30;4.13;;;32.90;99.70;;;;;;5035063;28;20784;-76
2022/06/19 07:07:40;;;;;;;17.70;4.80;;;32.90;99.90;;;;;;5035163;28;20251;-77
2022/06/19 07:10:06;;;;;;;17.33;5.27;;;32.80;99.90;;;;;;5034495;28;20178;-76
2022/06/19 07:12:32;;;;;;;16.63;4.23;;;32.50;99.90;;;;;;5034448;28;20584;-76
2022/06/19 07:14:57;;;;;;;13.37;4.40;;;32.10;99.90;;;;;;5034491;28;20415;-76
2022/06/19 07:17:23;;;;;;;15.87;4.90;;;31.90;99.90;;;;;;5034531;28;20252;-77
2022/06/19 07:19:48;;;;;;;16.47;4.40;;;31.90;99.90;;;;;;5033075;28;20182;-76
2022/06/19 07:22:16;;;;;;;20.73;4.97;;;31.80;99.90;;;;;;5034062;28;20194;-77
2022/06/19 07:24:43;;;;;;;24.00;5.33;;;31.60;99.90;;;;;;5034485;28;20178;-76
2022/06/19 07:27:08;;;;;;;15.43;4.80;;;31.50;99.90;;;;;;5034251;28;20424;-76
2022/06/19 07:29:39;;;;;;;14.00;4.20;;;31.20;99.90;;;;;;5034016;28;20416;-76
2022/06/19 07:32:04;;;;;;;9.53;3.50;;;31.20;99.90;;;;;;5032547;28;20221;-76
2022/06/19 07:34:30;;;;;;;9.77;4.23;;;31.50;99.90;;;;;;5034292;28;20409;-76
2022/06/19 07:36:55;;;;;;;19.53;4.67;;;32.20;99.90;;;;;;5033926;28;20534;-75
2022/06/19 07:39:21;;;;;;;22.70;5.03;;;32.70;99.90;;;;;;5033902;28;20174;-76
2022/06/19 07:41:47;;;;;;;15.67;4.90;;;33.20;99.90;;;;;;5033468;28;20205;-76
2022/06/19 07:44:12;;;;;;;15.97;5.30;;;33.80;99.90;;;;;;5034456;28;20296;-76
2022/06/19 07:50:09;;;;;;;19.37;5.77;;;34.20;99.50;;;;;;5034438;28;20178;-76
2022/06/19 07:52:07;;;;;;;14.90;4.60;;;34.70;98.50;;;;;;5033343;28;20844;-76
2022/06/19 07:54:32;;;;;;;14.20;4.60;;;35.10;98.30;;;;;;5033782;28;20424;-76
2022/06/19 07:56:58;;;;;;;14.40;4.90;;;35.10;97.50;;;;;;5034000;28;20174;-76
2022/06/19 07:59:23;;;;;;;20.13;5.17;;;35.40;97.20;;;;;;5033788;28;20615;-76
2022/06/19 08:01:49;;;;;;;13.10;4.90;;;35.70;96.80;;;;;;5035116;28;20198;-76
2022/06/19 08:04:14;;;;;;;14.83;5.73;;;36.10;96.50;;;;;;5042254;28;20229;-76
2022/06/19 08:06:40;;;;;;;14.57;5.23;;;36.00;96.10;;;;;;5033406;28;20192;-73
2022/06/19 08:09:05;;;;;;;16.10;5.37;;;36.20;96.00;;;;;;5033402;28;20193;-75
2022/06/19 08:11:31;;;;;;;16.43;5.13;;;36.50;96.80;;;;;;5032989;28;20210;-76
2022/06/19 08:13:56;;;;;;;18.20;5.93;;;36.70;96.50;;;;;;5032200;28;20285;-76
2022/06/19 08:16:22;;;;;;;13.87;5.40;;;37.20;95.90;;;;;;5033847;28;20657;-75
2022/06/19 08:18:47;;;;;;;15.33;5.93;;;37.60;95.80;;;;;;5033313;28;20228;-75
2022/06/19 08:21:13;;;;;;;16.27;5.30;;;37.90;95.30;;;;;;5032973;28;20198;-76
2022/06/19 08:23:38;;;;;;;11.07;4.77;;;38.00;94.30;;;;;;5033192;28;20231;-75
2022/06/19 08:26:04;;;;;;;28.67;5.40;;;38.00;93.40;;;;;;5033226;28;20174;-76
2022/06/19 08:28:40;;;;;;;18.77;6.13;;;38.30;93.50;;;;;;5033258;28;20549;-75
2022/06/19 08:31:06;;;;;;;18.20;6.87;;;38.50;92.50;;;;;;5032707;28;20201;-76
2022/06/19 08:33:32;;;;;;;18.53;5.47;;;38.60;92.70;;;;;;5033394;28;20481;-75
2022/06/19 08:36:04;;;;;;;13.77;5.83;;;39.00;92.10;;;;;;5033210;28;20896;-76
2022/06/19 08:38:35;;;;;;;22.47;6.20;;;39.00;91.50;;;;;;5033249;28;20170;-76
2022/06/19 08:41:10;;;;;;;14.60;5.47;;;39.10;91.60;;;;;;5032886;28;20534;-76
2022/06/19 08:43:41;;;;;;;11.63;5.07;;;39.30;91.70;;;;;;5033341;28;20754;-76
2022/06/19 08:46:38;;;;;;;16.93;6.03;;;39.70;91.20;;;;;;5033252;28;20499;-77
2022/06/19 08:49:09;;;;;;;21.17;6.40;;;40.10;86.60;;;;;;5033065;28;20418;-76
2022/06/19 08:51:53;;;;;;;19.27;6.87;;;40.20;84.00;;;;;;5032013;28;20468;-76
2022/06/19 08:54:59;;;;;;;12.67;6.60;;;40.50;83.40;;;;;;5033115;28;20411;-75
2022/06/19 08:57:40;;;;;;;16.73;5.57;;;40.40;75.00;;;;;;5032976;28;20447;-76
2022/06/19 09:00:17;;;;;;;13.73;5.43;;;40.60;74.70;;;;;;5032686;28;20754;-75
2022/06/19 09:03:07;;;;;;;12.27;5.50;;;40.60;71.10;;;;;;5032543;28;20800;-76
2022/06/19 09:05:48;;;;;;;11.00;6.13;;;40.10;68.20;;;;;;5032534;28;20412;-76
2022/06/19 09:08:44;;;;;;;11.00;6.03;;;39.40;66.90;;;;;;5033116;28;20408;-78
2022/06/19 09:11:35;;;;;;;12.50;6.77;;;39.50;66.90;;;;;;5032144;28;20543;-76
2022/06/19 09:14:28;;;;;;;8.70;5.60;;;39.60;65.10;;;;;;5031436;28;20864;-75
2022/06/19 09:17:11;;;;;;;13.60;5.03;;;39.60;65.20;;;;;;5031911;28;20420;-76
2022/06/19 09:19:52;;;;;;;9.50;6.23;;;39.70;62.90;;;;;;5032307;28;20442;-76
2022/06/19 09:22:51;;;;;;;7.03;5.57;;;39.40;64.20;;;;;;5032049;28;20474;-75
2022/06/19 09:25:26;;;;;;;10.00;5.50;;;39.50;63.70;;;;;;5032277;28;20804;-75
2022/06/19 09:28:20;;;;;;;7.37;5.13;;;39.60;62.50;;;;;;5031940;28;20943;-75
2022/06/19 09:31:19;;;;;;;12.53;4.67;;;40.10;62.60;;;;;;5030232;28;20991;-75
2022/06/19 09:33:55;;;;;;;7.43;4.90;;;40.60;60.90;;;;;;5020558;28;20428;-76
2022/06/19 09:36:35;;;;;;;11.77;4.90;;;40.30;60.10;;;;;;5032023;28;20412;-75
2022/06/19 09:39:17;;;;;;;15.00;4.70;;;40.50;60.70;;;;;;5032418;28;20778;-76
2022/06/19 09:41:59;;;;;;;13.63;4.77;;;40.50;59.70;;;;;;5031715;28;20822;-76
2022/06/19 09:44:39;;;;;;;10.27;4.97;;;40.20;59.10;;;;;;5030649;28;20419;-75
2022/06/19 09:47:18;;;;;;;8.20;3.87;;;40.00;58.30;;;;;;5032251;28;20405;-76
2022/06/19 09:49:54;;;;;;;17.80;4.87;;;40.00;58.30;;;;;;5031949;28;20430;-75
2022/06/19 09:52:42;;;;;;;10.13;5.33;;;40.10;57.60;;;;;;5032418;28;20562;-75
2022/06/19 09:55:23;;;;;;;9.93;4.90;;;40.10;58.10;;;;;;5030729;28;20424;-74
2022/06/19 09:58:03;;;;;;;17.47;5.20;;;40.40;58.10;;;;;;5031712;28;20447;-76
2022/06/19 10:00:34;;;;;;;7.10;4.83;;;40.50;58.60;;;;;;5031949;28;20420;-76
2022/06/19 10:03:14;;;;;;;14.33;5.90;;;40.50;58.40;;;;;;5035153;28;20943;-76
2022/06/19 10:05:46;;;;;;;12.23;5.30;;;40.40;58.40;;;;;;5040827;28;20491;-76
2022/06/19 10:08:48;;;;;;;8.93;4.73;;;40.40;57.30;;;;;;5039506;28;20427;-75
2022/06/19 10:11:17;;;;;;;8.60;5.23;;;40.60;58.30;;;;;;5035217;28;21027;-75
2022/06/19 10:13:43;;;;;;;7.87;5.20;;;40.90;57.80;;;;;;5035602;28;20426;-76
2022/06/19 10:16:32;;;;;;;13.63;5.73;;;41.10;57.60;;;;;;5035475;28;20897;-76
2022/06/19 10:19:01;;;;;;;10.33;5.47;;;41.20;58.10;;;;;;5035482;28;20209;-75
2022/06/19 10:24:45;;;;;;;12.50;4.50;;;41.10;56.40;;;;;;5035611;28;20833;-76
2022/06/19 10:27:20;;;;;;;11.33;5.80;;;41.10;56.60;;;;;;5035279;28;20416;-75
2022/06/19 10:30:12;;;;;;;6.10;5.13;;;40.90;55.60;;;;;;5035153;28;20988;-76
2022/06/19 10:33:04;;;;;;;12.50;5.57;;;40.60;56.50;;;;;;5035142;28;20869;-76
2022/06/19 10:35:45;;;;;;;17.33;5.97;;;40.50;56.30;;;;;;5035188;28;20416;-76
2022/06/19 10:38:33;;;;;;;10.40;5.23;;;40.60;57.50;;;;;;5035497;28;20443;-75
2022/06/19 10:44:43;;;;;;;11.63;5.67;;;40.90;55.20;;;;;;5014835;28;20418;-75
2022/06/19 10:47:20;;;;;;;11.33;5.83;;;40.70;55.60;;;;;;5035071;28;20400;-76
2022/06/19 10:50:07;;;;;;;14.20;5.60;;;40.40;56.10;;;;;;5034940;28;20786;-76
2022/06/19 10:53:07;;;;;;;11.73;5.13;;;40.60;56.20;;;;;;5034889;28;20995;-76
2022/06/19 10:55:51;;;;;;;11.43;4.70;;;40.00;56.30;;;;;;5035415;28;20777;-76
2022/06/19 10:58:19;;;;;;;19.10;7.47;;;39.90;54.90;;;;;;5033906;28;20408;-76
2022/06/19 11:00:50;;;;;;;19.93;6.00;;;39.80;54.20;;;;;;5034374;28;20416;-75
2022/06/19 11:06:35;;;;;;;13.37;5.87;;;39.80;55.70;;;;;;5034620;28;20416;-76
2022/06/19 11:09:04;;;;;;;17.30;6.30;;;39.80;55.40;;;;;;5035153;28;20784;-75
2022/06/19 11:11:33;;;;;;;8.13;5.90;;;39.70;55.80;;;;;;5034335;28;20484;-76
2022/06/19 11:14:12;;;;;;;12.40;5.90;;;39.60;55.20;;;;;;5035226;28;21077;-76
2022/06/19 11:17:16;;;;;;;13.07;6.33;;;39.20;55.70;;;;;;5036643;28;20404;-76
2022/06/19 11:19:45;;;;;;;11.07;6.20;;;39.00;56.00;;;;;;5004840;28;20428;-76
2022/06/19 11:22:40;;;;;;;12.20;5.30;;;39.30;57.00;;;;;;5035829;28;20527;-75
2022/06/19 11:25:21;;;;;;;13.03;5.73;;;39.60;56.30;;;;;;5033722;28;20502;-76
2022/06/19 11:28:12;;;;;;;14.13;5.90;;;39.50;55.90;;;;;;5034834;28;20408;-76
2022/06/19 11:30:39;;;;;;;13.87;5.97;;;39.40;55.70;;;;;;5026529;28;20864;-74
2022/06/19 11:33:15;;;;;;;8.47;5.30;;;39.60;56.60;;;;;;5034148;28;20444;-76
2022/06/19 11:35:56;;;;;;;9.27;5.97;;;39.40;56.10;;;;;;5034595;28;20431;-76
2022/06/19 11:38:54;;;;;;;12.47;5.67;;;39.30;55.80;;;;;;5034277;28;20961;-76
2022/06/19 11:41:35;;;;;;;11.87;5.43;;;39.50;56.40;;;;;;5021666;28;20819;-75
2022/06/19 11:44:14;;;;;;;8.20;5.33;;;39.50;56.40;;;;;;5032558;28;20420;-76
2022/06/19 11:46:57;;;;;;;8.23;4.20;;;39.60;56.20;;;;;;5033930;28;20920;-76
2022/06/19 11:49:39;;;;;;;21.93;5.10;;;39.30;54.60;;;;;;5034122;28;20780;-76
2022/06/19 11:52:16;;;;;;;14.23;5.17;;;39.10;55.50;;;;;;5033719;28;20831;-76
2022/06/19 11:54:45;;;;;;;14.60;5.30;;;38.60;55.10;;;;;;5033945;28;20478;-76
2022/06/19 11:57:31;;;;;;;13.57;5.20;;;38.50;55.00;;;;;;5034476;28;20602;-76
2022/06/19 11:59:59;;;;;;;14.47;6.40;;;38.60;56.50;;;;;;5033851;28;20412;-76
2022/06/19 12:02:45;;;;;;;9.90;5.57;;;38.60;56.30;;;;;;5033481;28;20922;-76
2022/06/19 12:05:28;;;;;;;12.33;5.10;;;38.50;54.90;;;;;;5033767;28;20495;-75
2022/06/19 12:07:55;;;;;;;16.10;5.83;;;38.60;55.60;;;;;;5033962;28;20853;-76
2022/06/19 12:10:25;;;;;;;15.87;5.93;;;38.50;55.40;;;;;;5037276;28;20412;-76
2022/06/19 12:12:58;;;;;;;10.90;5.53;;;38.40;55.90;;;;;;5034064;28;20443;-76
2022/06/19 12:15:32;;;;;;;10.50;5.67;;;38.40;56.20;;;;;;5033601;28;20917;-76
2022/06/19 12:17:59;;;;;;;9.37;5.77;;;38.40;56.40;;;;;;5032050;28;20420;-76
2022/06/19 12:20:28;;;;;;;18.23;5.67;;;38.40;56.60;;;;;;5033418;28;20413;-75
2022/06/19 12:23:07;;;;;;;9.83;5.63;;;38.40;56.70;;;;;;5033009;28;20428;-75
2022/06/19 12:25:50;;;;;;;10.60;5.93;;;38.40;56.90;;;;;;5033399;28;20587;-76
2022/06/19 12:28:19;;;;;;;13.23;6.67;;;38.40;56.10;;;;;;5033290;28;20866;-75
2022/06/19 12:30:59;;;;;;;8.60;5.83;;;38.20;56.30;;;;;;5032432;28;20448;-75
2022/06/19 12:34:02;;;;;;;11.77;5.40;;;38.20;56.40;;;;;;5033090;28;20411;-76
2022/06/19 12:36:30;;;;;;;15.80;6.00;;;38.00;57.60;;;;;;5033234;28;20401;-76
2022/06/19 12:38:56;;;;;;;11.37;6.23;;;38.00;57.60;;;;;;5033220;28;20483;-76
2022/06/19 12:41:48;;;;;;;12.23;6.07;;;37.90;56.70;;;;;;5031512;28;20527;-75
2022/06/19 12:44:20;;;;;;;16.50;6.00;;;38.10;58.50;;;;;;5032976;28;20225;-76
2022/06/19 12:47:17;;;;;;;15.00;6.10;;;38.20;57.60;;;;;;5032837;28;20496;-76
2022/06/19 12:50:04;;;;;;;16.33;6.27;;;38.10;58.20;;;;;;5032772;28;20420;-76
2022/06/19 12:52:44;;;;;;;19.53;6.10;;;38.00;58.20;;;;;;5031430;28;21012;-76
2022/06/19 12:55:31;;;;;;;16.63;6.60;;;38.10;57.50;;;;;;5032947;28;20413;-75
2022/06/19 12:58:24;;;;;;;16.33;6.80;;;38.10;58.10;;;;;;5033383;28;20787;-75
2022/06/19 13:00:56;;;;;;;10.23;6.23;;;38.10;57.40;;;;;;5032848;28;20478;-76
2022/06/19 13:04:04;;;;;;;21.57;6.20;;;38.00;57.30;;;;;;5032891;28;20440;-76
2022/06/19 13:07:10;;;;;;;12.03;6.07;;;37.80;56.80;;;;;;5024381;28;20426;-76
2022/06/19 13:10:02;;;;;;;11.10;6.40;;;37.70;56.80;;;;;;5024556;28;20423;-76
2022/06/19 13:12:36;;;;;;;8.93;5.67;;;37.60;56.30;;;;;;5032269;28;20464;-75
2022/06/19 13:15:05;;;;;;;17.00;5.43;;;37.70;57.30;;;;;;5032266;28;20486;-76
2022/06/19 13:17:45;;;;;;;17.13;6.00;;;37.70;56.50;;;;;;5032602;28;20416;-76
2022/06/19 13:20:22;;;;;;;14.17;6.17;;;37.70;57.50;;;;;;5032142;28;20415;-75
2022/06/19 13:23:25;;;;;;;13.90;5.80;;;37.70;56.50;;;;;;5032344;28;20463;-76
2022/06/19 13:29:28;;;;;;;11.93;6.10;;;37.40;56.70;;;;;;5032284;28;20416;-75
2022/06/19 13:31:59;;;;;;;16.17;7.63;;;37.50;57.30;;;;;;5031653;28;20471;-77
2022/06/19 13:34:49;;;;;;;16.73;7.37;;;37.60;56.90;;;;;;5032504;28;20405;-77
2022/06/19 13:37:43;;;;;;;11.97;5.70;;;37.50;57.30;;;;;;5032154;28;20422;-76
2022/06/19 13:40:39;;;;;;;17.93;6.17;;;37.60;57.20;;;;;;5032292;28;20927;-76
2022/06/19 13:43:38;;;;;;;8.83;6.30;;;37.40;56.40;;;;;;5031955;28;20409;-77
2022/06/19 13:46:38;;;;;;;19.23;6.80;;;37.20;56.70;;;;;;5032292;28;20455;-76
2022/06/19 13:49:25;;;;;;;6.70;5.50;;;37.20;57.00;;;;;;5031992;28;20415;-76
2022/06/19 13:52:01;;;;;;;10.43;6.43;;;37.30;57.30;;;;;;5031462;28;20475;-76
2022/06/19 13:54:35;;;;;;;11.97;5.40;;;37.20;56.20;;;;;;5032277;28;20404;-76
2022/06/19 13:57:12;;;;;;;16.03;6.67;;;37.00;56.00;;;;;;5031818;28;20416;-77
2022/06/19 13:59:51;;;;;;;14.90;7.00;;;36.90;55.90;;;;;;5032474;28;20412;-77
2022/06/19 14:02:47;;;;;;;21.10;6.07;;;36.90;56.50;;;;;;5031723;28;20436;-76
2022/06/19 14:05:38;;;;;;;21.90;6.50;;;36.80;56.00;;;;;;5032201;28;20500;-76
2022/06/19 14:08:28;;;;;;;10.23;5.90;;;36.90;57.10;;;;;;5030584;28;20419;-76
2022/06/19 14:10:57;;;;;;;16.43;5.80;;;36.90;57.50;;;;;;5031447;28;20555;-76
2022/06/19 14:14:04;;;;;;;14.00;5.63;;;37.00;56.50;;;;;;5034525;28;20416;-76
2022/06/19 14:16:35;;;;;;;12.70;6.87;;;37.00;56.80;;;;;;4957538;28;20534;-75
2022/06/19 14:19:19;;;;;;;11.97;6.47;;;36.80;56.20;;;;;;4971196;28;20428;-76
2022/06/19 14:22:06;;;;;;;14.63;6.30;;;36.80;55.70;;;;;;5009778;28;20822;-76
2022/06/19 14:24:40;;;;;;;13.60;5.90;;;36.80;57.00;;;;;;5031726;28;20932;-76
2022/06/19 14:27:18;;;;;;;15.63;6.17;;;36.70;57.50;;;;;;5031683;28;20500;-76
2022/06/19 14:29:58;;;;;;;10.00;5.27;;;36.70;56.80;;;;;;5031552;28;20412;-76
2022/06/19 14:32:27;;;;;;;18.37;6.13;;;36.60;56.50;;;;;;5031365;28;20480;-76
2022/06/19 14:35:04;;;;;;;16.57;7.40;;;36.50;57.00;;;;;;5031885;28;20419;-76
2022/06/19 14:37:29;;;;;;;18.77;6.57;;;36.40;56.30;;;;;;5032039;28;20455;-76
2022/06/19 14:40:23;;;;;;;13.67;6.27;;;36.50;57.60;;;;;;5032923;28;20408;-75
2022/06/19 14:43:02;;;;;;;17.60;6.90;;;36.40;56.40;;;;;;5031919;28;20198;-76
2022/06/19 14:45:35;;;;;;;12.73;6.20;;;36.60;57.50;;;;;;5031498;28;20447;-76
2022/06/19 14:48:19;;;;;;;15.40;6.07;;;36.40;56.00;;;;;;5031571;28;20463;-75
2022/06/19 14:51:15;;;;;;;27.93;6.83;;;36.30;56.40;;;;;;5033138;28;20475;-75
2022/06/19 14:54:13;;;;;;;11.27;6.47;;;36.40;56.90;;;;;;5033942;28;20417;-76
2022/06/19 14:57:07;;;;;;;18.47;5.20;;;36.40;56.80;;;;;;5010259;28;20415;-76